createdAt,value
2022-12-03T00:01:59.524Z,8.25
2022-12-03T00:04:26.074Z,9.75
2022-12-03T00:06:52.780Z,8.45
2022-12-03T00:09:19.604Z,9.68
2022-12-03T00:11:46.333Z,9.03
2022-12-03T00:14:13.166Z,9.05
2022-12-03T00:16:39.861Z,8.30
2022-12-03T00:19:07.826Z,9.63
2022-12-03T00:21:34.878Z,7.65
2022-12-03T00:24:01.552Z,8.73
2022-12-03T00:26:28.112Z,9.80
2022-12-03T00:28:54.963Z,9.65
2022-12-03T00:31:23.665Z,7.88
2022-12-03T00:33:52.286Z,9.55
2022-12-03T00:36:19.666Z,10.10
2022-12-03T00:38:46.298Z,9.73
2022-12-03T00:41:13.171Z,9.75
2022-12-03T00:43:39.672Z,9.65
2022-12-03T00:46:06.322Z,10.13
2022-12-03T00:48:32.940Z,9.10
2022-12-03T00:50:59.551Z,9.45
2022-12-03T00:53:26.231Z,9.80
2022-12-03T00:55:52.767Z,9.15
2022-12-03T00:58:19.427Z,9.70
2022-12-03T01:00:45.947Z,9.87
2022-12-03T01:03:12.530Z,9.05
2022-12-03T01:05:39.088Z,10.20
2022-12-03T01:08:05.964Z,9.73
2022-12-03T01:10:32.628Z,8.32
2022-12-03T01:12:59.202Z,9.57
2022-12-03T01:15:25.818Z,10.35
2022-12-03T01:17:54.341Z,9.85
2022-12-03T01:20:21.419Z,9.98
2022-12-03T01:22:48.035Z,9.23
2022-12-03T01:25:14.745Z,7.30
2022-12-03T01:27:41.566Z,8.00
2022-12-03T01:30:08.594Z,9.93
2022-12-03T01:32:35.131Z,9.90
2022-12-03T01:35:01.752Z,9.70
2022-12-03T01:37:28.430Z,9.80
2022-12-03T01:39:55.333Z,8.95
2022-12-03T01:42:25.933Z,9.35
2022-12-03T01:44:55.009Z,8.02
2022-12-03T01:47:27.458Z,9.43
2022-12-03T01:49:56.673Z,9.83
2022-12-03T01:52:28.929Z,8.57
2022-12-03T01:54:58.494Z,9.57
2022-12-03T01:57:28.550Z,9.70
2022-12-03T01:59:57.661Z,9.85
2022-12-03T02:02:28.261Z,11.77
2022-12-03T02:04:55.887Z,9.38
2022-12-03T02:07:34.773Z,8.52
2022-12-03T02:10:03.752Z,10.13
2022-12-03T02:12:33.052Z,9.70
2022-12-03T02:15:00.752Z,9.17
2022-12-03T02:17:28.338Z,9.90
2022-12-03T02:19:56.277Z,10.90
2022-12-03T02:22:55.146Z,9.85
2022-12-03T02:25:25.995Z,10.30
2022-12-03T02:27:54.965Z,9.40
2022-12-03T02:30:24.598Z,9.05
2022-12-03T02:32:52.723Z,8.23
2022-12-03T02:35:22.382Z,8.43
2022-12-03T02:37:52.943Z,8.50
2022-12-03T02:40:22.843Z,9.07
2022-12-03T02:42:53.588Z,9.70
2022-12-03T02:45:20.010Z,9.82
2022-12-03T02:48:11.594Z,10.40
2022-12-03T02:50:42.401Z,8.68
2022-12-03T02:53:14.322Z,10.47
2022-12-03T02:55:41.612Z,9.07
2022-12-03T02:58:08.909Z,9.18
2022-12-03T03:00:36.549Z,9.48
2022-12-03T03:03:04.780Z,10.13
2022-12-03T03:05:32.951Z,8.67
2022-12-03T03:08:00.701Z,9.90
2022-12-03T03:10:29.153Z,9.32
2022-12-03T03:12:56.400Z,10.45
2022-12-03T03:15:24.338Z,9.85
2022-12-03T03:17:51.174Z,9.90
2022-12-03T03:20:19.032Z,9.52
2022-12-03T03:22:45.576Z,9.93
2022-12-03T03:25:20.616Z,9.30
2022-12-03T03:27:47.291Z,10.90
2022-12-03T03:30:14.481Z,9.03
2022-12-03T03:32:43.114Z,9.40
2022-12-03T03:35:11.916Z,10.70
2022-12-03T03:37:39.258Z,8.75
2022-12-03T03:40:07.116Z,9.85
2022-12-03T03:42:33.975Z,9.97
2022-12-03T03:45:00.915Z,10.15
2022-12-03T03:47:27.521Z,10.50
2022-12-03T03:49:54.328Z,8.20
2022-12-03T03:52:21.198Z,10.40
2022-12-03T03:54:48.131Z,9.60
2022-12-03T03:57:14.684Z,9.55
2022-12-03T03:59:41.728Z,10.57
2022-12-03T04:02:18.892Z,9.35
2022-12-03T04:04:45.792Z,9.40
2022-12-03T04:07:12.521Z,9.47
2022-12-03T04:09:38.984Z,11.80
2022-12-03T04:12:24.592Z,11.55
2022-12-03T04:14:51.519Z,10.40
2022-12-03T04:17:18.429Z,9.70
2022-12-03T04:19:44.955Z,10.47
2022-12-03T04:22:29.699Z,9.90
2022-12-03T04:25:16.184Z,11.10
2022-12-03T04:28:01.349Z,10.65
2022-12-03T04:30:27.948Z,9.60
2022-12-03T04:33:13.032Z,9.07
2022-12-03T04:35:42.493Z,11.23
2022-12-03T04:38:10.083Z,10.43
2022-12-03T04:40:55.914Z,9.35
2022-12-03T04:43:22.595Z,9.55
2022-12-03T04:45:49.612Z,10.40
2022-12-03T04:48:16.165Z,10.65
2022-12-03T04:50:43.256Z,10.63
2022-12-03T04:53:09.860Z,10.93
2022-12-03T04:55:36.413Z,9.57
2022-12-03T04:58:02.944Z,11.67
2022-12-03T05:00:32.245Z,10.20
2022-12-03T05:02:58.911Z,9.48
2022-12-03T05:05:25.608Z,10.52
2022-12-03T05:07:52.155Z,10.38
2022-12-03T05:10:18.895Z,9.13
2022-12-03T05:12:45.380Z,9.80
2022-12-03T05:15:11.974Z,10.13
2022-12-03T05:17:38.453Z,10.13
2022-12-03T05:20:24.091Z,11.57
2022-12-03T05:22:50.586Z,9.87
2022-12-03T05:25:17.229Z,10.95
2022-12-03T05:27:43.676Z,11.65
2022-12-03T05:30:10.490Z,11.35
2022-12-03T05:32:36.994Z,11.15
2022-12-03T05:35:03.760Z,11.13
2022-12-03T05:37:30.323Z,11.35
2022-12-03T05:39:56.836Z,11.50
2022-12-03T05:42:41.894Z,12.85
2022-12-03T05:45:08.880Z,13.25
2022-12-03T05:47:35.446Z,12.27
2022-12-03T05:50:01.963Z,12.18
2022-12-03T05:52:28.762Z,13.82
2022-12-03T05:54:55.635Z,13.70
2022-12-03T05:57:22.312Z,14.70
2022-12-03T05:59:49.185Z,11.67
2022-12-03T06:02:15.867Z,13.52
2022-12-03T06:04:42.593Z,13.48
2022-12-03T06:07:13.771Z,11.32
2022-12-03T06:09:40.815Z,15.10
2022-12-03T06:12:08.910Z,14.27
2022-12-03T06:14:35.908Z,12.00
2022-12-03T06:17:02.799Z,10.55
2022-12-03T06:19:29.361Z,12.15
2022-12-03T06:21:56.025Z,13.27
2022-12-03T06:24:22.534Z,13.73
2022-12-03T06:26:49.135Z,12.82
2022-12-03T06:29:15.721Z,11.57
2022-12-03T06:31:42.256Z,11.85
2022-12-03T06:34:08.913Z,11.68
2022-12-03T06:36:35.415Z,13.23
2022-12-03T06:39:02.299Z,12.68
2022-12-03T06:41:28.815Z,11.88
2022-12-03T06:43:55.263Z,11.38
2022-12-03T06:46:21.773Z,11.57
2022-12-03T06:48:48.415Z,13.47
2022-12-03T06:51:14.963Z,11.05
2022-12-03T06:53:41.429Z,12.82
2022-12-03T06:56:08.058Z,12.73
2022-12-03T06:58:34.818Z,12.45
2022-12-03T07:01:01.405Z,13.17
2022-12-03T07:03:28.009Z,11.57
2022-12-03T07:05:54.519Z,11.82
2022-12-03T07:08:20.992Z,11.57
2022-12-03T07:10:47.578Z,10.52
2022-12-03T07:13:14.063Z,11.77
2022-12-03T07:15:40.862Z,11.18
2022-12-03T07:18:07.466Z,11.50
2022-12-03T07:20:33.953Z,11.95
2022-12-03T07:23:00.438Z,12.13
2022-12-03T07:25:27.173Z,10.23
2022-12-03T07:27:53.621Z,11.15
2022-12-03T07:30:20.377Z,13.55
2022-12-03T07:32:46.900Z,11.50
2022-12-03T07:35:13.482Z,12.05
2022-12-03T07:37:40.139Z,13.23
2022-12-03T07:40:07.365Z,11.70
2022-12-03T07:42:33.942Z,10.77
2022-12-03T07:45:00.768Z,12.20
2022-12-03T07:47:27.342Z,12.23
2022-12-03T07:49:53.889Z,10.20
2022-12-03T07:52:20.564Z,11.60
2022-12-03T07:54:47.244Z,11.52
2022-12-03T07:57:13.818Z,11.70
2022-12-03T07:59:40.329Z,11.63
2022-12-03T08:02:06.929Z,12.47
2022-12-03T08:04:33.563Z,13.65
2022-12-03T08:07:00.309Z,13.32
2022-12-03T08:09:26.981Z,12.23
2022-12-03T08:11:53.956Z,12.65
2022-12-03T08:14:20.925Z,12.67
2022-12-03T08:16:48.095Z,13.15
2022-12-03T08:19:16.505Z,13.02
2022-12-03T08:21:43.765Z,12.25
2022-12-03T08:24:21.081Z,11.85
2022-12-03T08:26:49.665Z,12.27
2022-12-03T08:29:18.796Z,12.75
2022-12-03T08:31:55.180Z,12.60
2022-12-03T08:34:26.767Z,11.27
2022-12-03T08:37:01.575Z,11.68
2022-12-03T08:39:40.594Z,13.23
2022-12-03T08:42:28.984Z,12.57
2022-12-03T08:44:56.168Z,12.10
2022-12-03T08:47:24.385Z,12.07
2022-12-03T08:50:03.385Z,13.35
2022-12-03T08:52:34.751Z,12.83
2022-12-03T08:55:29.427Z,12.85
2022-12-03T08:57:55.975Z,12.50
2022-12-03T09:00:24.559Z,12.60
2022-12-03T09:02:54.290Z,11.57
2022-12-03T09:05:23.584Z,12.83
2022-12-03T09:07:50.283Z,13.30
2022-12-03T09:10:20.681Z,10.93
2022-12-03T09:12:47.613Z,14.70
2022-12-03T09:15:14.224Z,14.23
2022-12-03T09:17:40.884Z,13.20
2022-12-03T09:20:09.224Z,13.90
2022-12-03T09:22:35.957Z,14.25
2022-12-03T09:25:02.719Z,13.98
2022-12-03T09:27:29.538Z,14.43
2022-12-03T09:29:57.744Z,12.93
2022-12-03T09:32:24.607Z,13.52
2022-12-03T09:34:51.794Z,12.45
2022-12-03T09:37:18.730Z,14.25
2022-12-03T09:39:45.314Z,13.40
2022-12-03T09:42:12.311Z,14.30
2022-12-03T09:44:39.244Z,13.20
2022-12-03T09:47:06.993Z,11.48
2022-12-03T09:49:37.646Z,12.43
2022-12-03T09:52:06.376Z,9.85
2022-12-03T09:54:36.475Z,10.80
2022-12-03T09:57:04.411Z,10.05
2022-12-03T09:59:33.455Z,10.52
2022-12-03T10:02:00.653Z,10.73
2022-12-03T10:04:28.581Z,10.02
2022-12-03T10:07:06.209Z,11.20
2022-12-03T10:09:35.145Z,10.02
2022-12-03T10:12:01.901Z,9.00
2022-12-03T10:14:28.995Z,11.10
2022-12-03T10:16:55.993Z,10.65
2022-12-03T10:19:26.107Z,12.03
2022-12-03T10:21:52.915Z,11.90
2022-12-03T10:24:24.163Z,10.95
2022-12-03T10:26:52.964Z,10.38
2022-12-03T10:29:29.913Z,12.02
2022-12-03T10:32:10.517Z,11.67
2022-12-03T10:34:39.703Z,12.00
2022-12-03T10:37:14.302Z,11.70
2022-12-03T10:40:09.364Z,11.90
2022-12-03T10:42:39.829Z,13.02
2022-12-03T10:45:19.339Z,11.10
2022-12-03T10:48:06.402Z,13.18
2022-12-03T10:50:34.877Z,11.77
2022-12-03T10:53:02.104Z,11.73
2022-12-03T10:55:34.309Z,12.38
2022-12-03T10:58:02.307Z,12.73
2022-12-03T11:00:29.177Z,12.18
2022-12-03T11:02:57.119Z,12.50
2022-12-03T11:05:27.567Z,10.70
2022-12-03T11:07:54.762Z,13.80
2022-12-03T11:10:21.913Z,11.23
2022-12-03T11:13:33.079Z,12.68
2022-12-03T11:16:05.307Z,12.85
2022-12-03T11:18:34.731Z,12.73
2022-12-03T11:21:02.522Z,11.38
2022-12-03T11:23:44.245Z,12.53
2022-12-03T11:26:18.404Z,13.02
2022-12-03T11:28:45.719Z,10.95
2022-12-03T11:31:42.023Z,12.27
2022-12-03T11:34:20.735Z,9.30
2022-12-03T11:37:12.069Z,10.93
2022-12-03T11:39:44.785Z,10.65
2022-12-03T11:42:29.869Z,9.43
2022-12-03T11:45:05.765Z,8.23
2022-12-03T11:47:41.825Z,7.78
2022-12-03T11:50:21.557Z,8.57
2022-12-03T11:52:54.521Z,8.02
2022-12-03T11:55:34.781Z,7.50
2022-12-03T11:58:22.530Z,8.30
2022-12-03T12:00:53.842Z,8.52
2022-12-03T12:03:52.901Z,8.53
2022-12-03T12:06:21.209Z,6.45
2022-12-03T12:09:00.078Z,8.38
2022-12-03T12:11:34.578Z,7.55
2022-12-03T12:14:19.265Z,9.00
2022-12-03T12:16:50.988Z,8.13
2022-12-03T12:19:33.879Z,8.63
2022-12-03T12:22:28.185Z,9.05
2022-12-03T12:25:04.038Z,7.20
2022-12-03T12:27:49.492Z,10.00
2022-12-03T12:30:19.179Z,10.10
2022-12-03T12:32:48.412Z,9.10
2022-12-03T12:35:26.496Z,8.60
2022-12-03T12:38:03.283Z,8.57
2022-12-03T12:40:34.883Z,11.02
2022-12-03T12:43:11.775Z,7.67
2022-12-03T12:45:43.569Z,8.57
2022-12-03T12:48:10.207Z,8.38
2022-12-03T12:50:38.573Z,8.43
2022-12-03T12:53:12.776Z,8.25
2022-12-03T12:55:40.128Z,9.30
2022-12-03T12:58:17.354Z,9.32
2022-12-03T13:00:50.980Z,7.82
2022-12-03T13:03:19.363Z,9.10
2022-12-03T13:05:49.267Z,11.38
2022-12-03T13:08:23.504Z,10.33
2022-12-03T13:10:52.597Z,10.00
2022-12-03T13:13:21.712Z,10.15
2022-12-03T13:15:50.639Z,10.82
2022-12-03T13:18:39.898Z,10.73
2022-12-03T13:21:32.874Z,12.03
2022-12-03T13:24:00.986Z,12.18
2022-12-03T13:26:39.421Z,13.88
2022-12-03T13:29:16.549Z,17.90
2022-12-03T13:31:51.184Z,16.88
2022-12-03T13:34:23.416Z,16.30
2022-12-03T13:36:57.633Z,15.90
2022-12-03T13:39:30.697Z,14.45
2022-12-03T13:42:21.977Z,12.98
2022-12-03T13:44:50.057Z,11.20
2022-12-03T13:47:22.752Z,14.60
2022-12-03T13:49:57.936Z,14.40
2022-12-03T13:52:29.064Z,12.98
2022-12-03T13:54:57.145Z,14.35
2022-12-03T13:57:23.953Z,14.05
2022-12-03T13:59:50.760Z,16.40
2022-12-03T14:02:17.998Z,16.92
2022-12-03T14:04:46.466Z,14.93
2022-12-03T14:07:13.142Z,12.23
2022-12-03T14:09:39.733Z,16.30
2022-12-03T14:12:25.339Z,13.47
2022-12-03T14:14:52.036Z,14.10
2022-12-03T14:17:18.562Z,13.88
2022-12-03T14:19:45.247Z,13.05
2022-12-03T14:22:12.025Z,11.65
2022-12-03T14:24:40.201Z,11.37
2022-12-03T14:27:06.820Z,11.45
2022-12-03T14:29:33.576Z,12.20
2022-12-03T14:32:00.155Z,11.50
2022-12-03T14:34:27.256Z,11.25
2022-12-03T14:36:53.784Z,9.57
2022-12-03T14:39:23.359Z,11.73
2022-12-03T14:42:08.515Z,10.45
2022-12-03T14:44:37.181Z,10.90
2022-12-03T14:47:03.811Z,10.63
2022-12-03T14:49:30.379Z,9.60
2022-12-03T14:51:56.925Z,10.45
2022-12-03T14:54:23.854Z,12.60
2022-12-03T14:56:50.515Z,12.50
2022-12-03T14:59:17.366Z,11.48
2022-12-03T15:01:43.960Z,13.37
2022-12-03T15:04:10.768Z,11.50
2022-12-03T15:06:37.280Z,11.07
2022-12-03T15:09:04.512Z,11.48
2022-12-03T15:11:31.260Z,11.32
2022-12-03T15:13:58.159Z,11.43
2022-12-03T15:16:25.067Z,11.75
2022-12-03T15:18:52.086Z,10.63
2022-12-03T15:21:18.610Z,10.40
2022-12-03T15:23:45.261Z,10.82
2022-12-03T15:26:11.762Z,10.90
2022-12-03T15:28:38.416Z,10.65
2022-12-03T15:31:05.186Z,11.35
2022-12-03T15:33:31.835Z,12.73
2022-12-03T15:35:58.429Z,11.90
2022-12-03T15:38:24.983Z,12.50
2022-12-03T15:40:51.584Z,13.18
2022-12-03T15:43:18.229Z,10.95
2022-12-03T15:45:45.012Z,12.32
2022-12-03T15:48:13.445Z,15.88
2022-12-03T15:50:40.593Z,15.70
2022-12-03T15:53:07.335Z,15.60
2022-12-03T15:55:33.842Z,14.85
2022-12-03T15:58:00.428Z,13.48
2022-12-03T16:00:26.936Z,15.93
2022-12-03T16:02:53.634Z,14.30
2022-12-03T16:05:20.253Z,15.75
2022-12-03T16:07:46.878Z,14.75
2022-12-03T16:10:13.722Z,15.82
2022-12-03T16:12:40.417Z,17.20
2022-12-03T16:15:07.281Z,16.87
2022-12-03T16:17:33.972Z,15.63
2022-12-03T16:20:00.672Z,16.70
2022-12-03T16:22:27.184Z,13.05
2022-12-03T16:24:53.791Z,14.85
2022-12-03T16:27:25.297Z,16.67
2022-12-03T16:29:52.660Z,17.38
2022-12-03T16:32:19.605Z,16.45
2022-12-03T16:34:46.263Z,13.75
2022-12-03T16:37:12.842Z,16.25
2022-12-03T16:39:39.491Z,12.43
2022-12-03T16:42:10.203Z,14.77
2022-12-03T16:44:58.928Z,13.57
2022-12-03T16:47:30.618Z,13.82
2022-12-03T16:50:00.495Z,13.80
2022-12-03T16:52:29.567Z,15.90
2022-12-03T16:54:56.506Z,16.08
2022-12-03T16:57:23.041Z,14.95
2022-12-03T16:59:49.888Z,15.23
2022-12-03T17:02:16.600Z,16.25
2022-12-03T17:04:43.227Z,13.83
2022-12-03T17:07:09.922Z,13.93
2022-12-03T17:09:36.486Z,14.10
2022-12-03T17:12:03.117Z,16.13
2022-12-03T17:14:33.289Z,15.27
2022-12-03T17:17:00.175Z,15.60
2022-12-03T17:19:26.756Z,15.57
2022-12-03T17:21:54.235Z,16.45
2022-12-03T17:24:21.428Z,14.82
2022-12-03T17:26:48.007Z,14.27
2022-12-03T17:29:14.641Z,15.97
2022-12-03T17:31:42.477Z,17.10
2022-12-03T17:34:09.528Z,13.32
2022-12-03T17:36:36.203Z,15.52
2022-12-03T17:39:02.906Z,15.93
2022-12-03T17:41:29.437Z,16.00
2022-12-03T17:43:56.072Z,13.77
2022-12-03T17:46:22.642Z,13.23
2022-12-03T17:48:49.302Z,14.82
2022-12-03T17:51:16.005Z,15.43
2022-12-03T17:53:42.644Z,15.87
2022-12-03T17:56:09.585Z,14.07
2022-12-03T17:58:36.072Z,14.13
2022-12-03T18:01:03.436Z,14.48
2022-12-03T18:03:30.849Z,15.35
2022-12-03T18:05:57.418Z,15.90
2022-12-03T18:08:24.202Z,12.88
2022-12-03T18:10:50.889Z,15.82
2022-12-03T18:13:17.563Z,14.32
2022-12-03T18:15:44.110Z,16.85
2022-12-03T18:18:10.945Z,15.23
2022-12-03T18:20:38.054Z,14.27
2022-12-03T18:23:04.991Z,17.27
2022-12-03T18:25:31.714Z,17.70
2022-12-03T18:27:58.460Z,15.68
2022-12-03T18:30:25.233Z,16.53
2022-12-03T18:32:51.909Z,16.73
2022-12-03T18:35:18.540Z,15.75
2022-12-03T18:37:45.155Z,15.93
2022-12-03T18:40:22.478Z,17.33
2022-12-03T18:42:49.211Z,16.30
2022-12-03T18:45:16.426Z,16.75
2022-12-03T18:47:43.715Z,14.68
2022-12-03T18:52:52.681Z,16.00
2022-12-03T18:55:21.822Z,13.10
2022-12-03T18:57:48.403Z,13.45
2022-12-03T19:00:15.376Z,13.75
2022-12-03T19:05:29.090Z,15.10
2022-12-03T19:07:56.616Z,14.20
2022-12-03T19:10:23.928Z,14.32
2022-12-03T19:12:50.580Z,15.77
2022-12-03T19:15:17.569Z,15.07
2022-12-03T19:17:49.474Z,15.65
2022-12-03T19:20:16.146Z,14.60
2022-12-03T19:22:42.724Z,18.30
2022-12-03T19:25:09.506Z,14.82
2022-12-03T19:27:36.215Z,16.17
2022-12-03T19:30:03.095Z,14.85
2022-12-03T19:32:29.631Z,14.53
2022-12-03T19:34:57.252Z,15.45
2022-12-03T19:37:23.801Z,15.80
2022-12-03T19:39:53.509Z,15.20
2022-12-03T19:42:20.529Z,16.75
2022-12-03T19:44:47.108Z,14.83
2022-12-03T19:47:13.857Z,11.82
2022-12-03T19:49:40.449Z,14.50
2022-12-03T19:52:06.992Z,15.82
2022-12-03T19:54:33.696Z,14.95
2022-12-03T19:57:00.486Z,15.63
2022-12-03T19:59:27.134Z,13.93
2022-12-03T20:01:53.726Z,15.27
2022-12-03T20:04:20.481Z,14.02
2022-12-03T20:06:47.732Z,15.45
2022-12-03T20:09:17.903Z,15.33
2022-12-03T20:11:46.070Z,13.27
2022-12-03T20:14:15.614Z,17.17
2022-12-03T20:16:42.883Z,14.13
2022-12-03T20:19:12.473Z,14.23
2022-12-03T20:21:40.248Z,15.03
2022-12-03T20:24:08.363Z,15.35
2022-12-03T20:26:34.876Z,15.50
2022-12-03T20:29:01.800Z,13.85
2022-12-03T20:31:31.237Z,14.68
2022-12-03T20:34:02.928Z,14.13
2022-12-03T20:36:31.052Z,15.35
2022-12-03T20:39:00.286Z,15.75
2022-12-03T20:41:26.874Z,14.40
2022-12-03T20:43:54.466Z,16.20
2022-12-03T20:46:25.878Z,13.70
2022-12-03T20:48:54.277Z,14.25
2022-12-03T20:51:23.537Z,15.73
2022-12-03T20:53:50.343Z,13.15
2022-12-03T20:56:20.301Z,15.52
2022-12-03T20:58:49.005Z,14.93
2022-12-03T21:01:22.263Z,15.02
2022-12-03T21:03:49.647Z,15.50
2022-12-03T21:06:17.298Z,12.55
2022-12-03T21:08:44.858Z,16.20
2022-12-03T21:11:16.041Z,14.27
2022-12-03T21:13:45.427Z,14.35
2022-12-03T21:16:15.849Z,14.20
2022-12-03T21:18:43.424Z,14.18
2022-12-03T21:21:12.204Z,13.13
2022-12-03T21:23:38.911Z,15.20
2022-12-03T21:26:08.434Z,15.48
2022-12-03T21:28:35.773Z,13.85
2022-12-03T21:31:06.173Z,12.68
2022-12-03T21:33:33.518Z,15.50
2022-12-03T21:36:01.116Z,13.97
2022-12-03T21:38:30.265Z,15.70
2022-12-03T21:40:57.524Z,12.77
2022-12-03T21:43:25.259Z,13.45
2022-12-03T21:45:53.984Z,13.68
2022-12-03T21:48:21.062Z,14.93
2022-12-03T21:51:00.650Z,16.17
2022-12-03T21:53:28.180Z,13.82
2022-12-03T21:55:54.858Z,13.80
2022-12-03T21:58:21.455Z,14.43
2022-12-03T22:00:48.065Z,13.90
2022-12-03T22:03:14.779Z,14.48
2022-12-03T22:05:41.367Z,16.63
2022-12-03T22:08:08.109Z,15.90
2022-12-03T22:10:35.434Z,14.82
2022-12-03T22:13:02.264Z,13.50
2022-12-03T22:15:28.808Z,12.57
2022-12-03T22:17:55.345Z,13.88
2022-12-03T22:20:22.261Z,13.55
2022-12-03T22:22:48.833Z,15.00
2022-12-03T22:25:15.864Z,15.33
2022-12-03T22:27:42.599Z,13.15
2022-12-03T22:30:09.534Z,14.85
2022-12-03T22:32:36.114Z,12.50
2022-12-03T22:35:02.851Z,14.25
2022-12-03T22:37:32.390Z,12.70
2022-12-03T22:39:59.106Z,13.75
2022-12-03T22:42:25.689Z,13.48
2022-12-03T22:44:52.160Z,14.38
2022-12-03T22:47:18.707Z,15.18
2022-12-03T22:49:45.212Z,14.47
2022-12-03T22:52:11.731Z,14.35
2022-12-03T22:54:38.317Z,15.13
2022-12-03T22:57:04.767Z,14.70
2022-12-03T22:59:31.406Z,17.15
2022-12-03T23:01:58.064Z,17.00
2022-12-03T23:04:24.674Z,13.55
2022-12-03T23:06:51.103Z,14.88
2022-12-03T23:09:17.880Z,14.77
2022-12-03T23:11:45.597Z,15.52
2022-12-03T23:14:13.343Z,16.23
2022-12-03T23:16:40.658Z,15.15
2022-12-03T23:19:07.148Z,13.98
2022-12-03T23:21:34.740Z,13.65
2022-12-03T23:24:02.873Z,13.95
2022-12-03T23:26:29.673Z,15.13
2022-12-03T23:28:56.721Z,13.05
2022-12-03T23:31:29.874Z,16.63
2022-12-03T23:33:57.568Z,16.77
2022-12-03T23:36:26.206Z,14.20
2022-12-03T23:38:53.604Z,15.40
2022-12-03T23:41:22.584Z,13.70
2022-12-03T23:43:49.586Z,18.25
2022-12-03T23:46:20.154Z,16.58
2022-12-03T23:48:46.863Z,14.80
2022-12-03T23:51:20.287Z,14.87
2022-12-03T23:53:47.555Z,15.52
2022-12-03T23:56:17.483Z,16.48
2022-12-03T23:58:44.621Z,15.18
